createdAt,value
2023-04-02T00:01:39.828Z,7.34
2023-04-02T00:05:56.055Z,7.28
2023-04-02T00:09:38.834Z,7.26
2023-04-02T00:13:07.287Z,7.17
2023-04-02T00:16:27.413Z,7.28
2023-04-02T00:19:43.026Z,7.14
2023-04-02T00:22:52.008Z,7.27
2023-04-02T00:26:00.518Z,7.18
2023-04-02T00:29:12.410Z,7.01
2023-04-02T00:32:28.752Z,7.13
2023-04-02T00:35:40.869Z,7.18
2023-04-02T00:38:51.963Z,7.20
2023-04-02T00:42:06.066Z,7.16
2023-04-02T00:45:24.911Z,7.19
2023-04-02T00:48:47.874Z,6.98
2023-04-02T00:52:02.739Z,7.01
2023-04-02T00:55:18.745Z,7.01
2023-04-02T00:58:33.135Z,6.96
2023-04-02T01:01:42.756Z,6.82
2023-04-02T01:04:57.133Z,6.79
2023-04-02T01:08:16.981Z,6.81
2023-04-02T01:12:14.691Z,6.63
2023-04-02T01:15:31.578Z,6.92
2023-04-02T01:18:54.288Z,6.78
2023-04-02T01:22:10.779Z,6.72
2023-04-02T01:25:29.056Z,6.93
2023-04-02T01:29:02.845Z,7.14
2023-04-02T01:32:15.085Z,7.06
2023-04-02T01:35:26.739Z,6.98
2023-04-02T01:38:45.116Z,6.99
2023-04-02T01:42:09.823Z,7.06
2023-04-02T01:45:24.334Z,7.05
2023-04-02T01:48:33.202Z,6.96
2023-04-02T01:51:45.538Z,6.94
2023-04-02T01:54:57.212Z,6.80
2023-04-02T01:58:06.604Z,7.01
2023-04-02T02:01:20.682Z,6.99
2023-04-02T02:04:34.005Z,6.95
2023-04-02T02:07:42.944Z,6.98
2023-04-02T02:10:51.974Z,6.84
2023-04-02T02:14:08.172Z,6.96
2023-04-02T02:17:24.291Z,6.92
2023-04-02T02:20:36.264Z,6.90
2023-04-02T02:23:44.791Z,6.74
2023-04-02T02:27:29.259Z,6.78
2023-04-02T02:30:52.247Z,6.84
2023-04-02T02:34:10.232Z,6.93
2023-04-02T02:37:26.287Z,6.86
2023-04-02T02:40:46.227Z,6.78
2023-04-02T02:44:03.816Z,6.66
2023-04-02T02:47:22.076Z,6.71
2023-04-02T02:50:35.384Z,6.72
2023-04-02T02:53:52.045Z,6.74
2023-04-02T02:57:24.509Z,6.65
2023-04-02T03:00:33.725Z,6.82
2023-04-02T03:03:42.530Z,6.80
2023-04-02T03:06:55.230Z,6.83
2023-04-02T03:10:15.255Z,6.86
2023-04-02T03:13:29.209Z,6.83
2023-04-02T03:16:46.657Z,6.89
2023-04-02T03:20:02.571Z,6.89
2023-04-02T03:23:21.676Z,6.76
2023-04-02T03:26:40.160Z,6.80
2023-04-02T03:30:05.251Z,6.92
2023-04-02T03:33:22.680Z,6.95
2023-04-02T03:36:38.361Z,6.78
2023-04-02T03:39:54.606Z,6.79
2023-04-02T03:43:13.008Z,6.83
2023-04-02T03:46:35.874Z,6.90
2023-04-02T03:49:54.971Z,6.95
2023-04-02T03:53:05.437Z,6.79
2023-04-02T03:56:29.154Z,6.84
2023-04-02T03:59:49.789Z,6.71
2023-04-02T04:03:08.274Z,6.66
2023-04-02T04:06:23.742Z,6.74
2023-04-02T04:09:38.144Z,6.83
2023-04-02T04:12:51.676Z,6.78
2023-04-02T04:16:08.948Z,6.64
2023-04-02T04:19:25.360Z,6.65
2023-04-02T04:22:34.147Z,6.65
2023-04-02T04:26:01.911Z,6.59
2023-04-02T04:29:28.359Z,6.57
2023-04-02T04:32:43.070Z,6.62
2023-04-02T04:36:02.047Z,6.63
2023-04-02T04:39:24.216Z,6.66
2023-04-02T04:42:37.237Z,6.56
2023-04-02T04:45:59.334Z,6.64
2023-04-02T04:49:15.676Z,6.61
2023-04-02T04:52:29.051Z,6.48
2023-04-02T04:55:41.421Z,6.41
2023-04-02T04:58:57.821Z,6.71
2023-04-02T05:02:15.043Z,6.64
2023-04-02T05:05:31.241Z,6.49
2023-04-02T05:08:48.444Z,6.57
2023-04-02T05:12:11.772Z,6.62
2023-04-02T05:15:30.320Z,6.62
2023-04-02T05:18:48.036Z,6.70
2023-04-02T05:22:06.273Z,6.71
2023-04-02T05:25:25.869Z,6.71
2023-04-02T05:28:44.083Z,6.76
2023-04-02T05:32:04.241Z,6.68
2023-04-02T05:35:22.009Z,6.73
2023-04-02T05:38:34.225Z,6.79
2023-04-02T05:41:47.595Z,6.95
2023-04-02T05:45:24.002Z,6.88
2023-04-02T05:48:38.901Z,7.06
2023-04-02T05:51:58.040Z,7.20
2023-04-02T05:55:39.220Z,7.23
2023-04-02T05:58:59.890Z,7.36
2023-04-02T06:04:02.131Z,7.40
2023-04-02T06:07:19.557Z,7.43
2023-04-02T06:10:38.509Z,7.37
2023-04-02T06:13:47.935Z,7.45
2023-04-02T06:16:56.467Z,7.29
2023-04-02T06:20:09.836Z,7.42
2023-04-02T06:23:24.489Z,7.45
2023-04-02T06:26:42.404Z,7.45
2023-04-02T06:30:04.242Z,7.44
2023-04-02T06:33:15.565Z,7.45
2023-04-02T06:36:29.552Z,7.49
2023-04-02T06:39:43.395Z,7.51
2023-04-02T06:42:59.868Z,7.54
2023-04-02T06:46:24.880Z,7.60
2023-04-02T06:49:48.219Z,7.71
2023-04-02T06:53:05.155Z,7.81
2023-04-02T06:56:27.068Z,7.92
2023-04-02T06:59:36.454Z,7.96
2023-04-02T07:02:47.686Z,7.96
2023-04-02T07:05:57.795Z,8.12
2023-04-02T07:09:09.115Z,8.12
2023-04-02T07:12:25.708Z,8.29
2023-04-02T07:15:35.060Z,8.19
2023-04-02T07:18:44.555Z,8.37
2023-04-02T07:21:55.426Z,8.38
2023-04-02T07:25:08.290Z,8.64
2023-04-02T07:28:17.409Z,8.99
2023-04-02T07:31:29.197Z,9.22
2023-04-02T07:34:37.514Z,9.15
2023-04-02T07:37:45.884Z,9.15
2023-04-02T07:40:56.035Z,9.53
2023-04-02T07:44:05.953Z,9.69
2023-04-02T07:47:14.201Z,9.72
2023-04-02T07:50:22.833Z,9.91
2023-04-02T07:53:34.366Z,9.93
2023-04-02T07:56:44.662Z,9.91
2023-04-02T07:59:56.415Z,9.98
2023-04-02T08:03:05.842Z,10.33
2023-04-02T08:06:14.729Z,10.11
2023-04-02T08:09:23.148Z,10.21
2023-04-02T08:12:33.035Z,9.92
2023-04-02T08:15:41.609Z,9.75
2023-04-02T08:18:50.318Z,10.10
2023-04-02T08:21:58.509Z,10.03
2023-04-02T08:25:08.303Z,10.20
2023-04-02T08:28:18.563Z,10.21
2023-04-02T08:31:27.576Z,10.36
2023-04-02T08:34:36.144Z,9.64
2023-04-02T08:37:44.862Z,10.08
2023-04-02T08:40:57.585Z,9.75
2023-04-02T08:44:38.506Z,9.81
2023-04-02T08:47:47.362Z,9.66
2023-04-02T08:50:58.956Z,10.40
2023-04-02T08:57:46.344Z,9.94
2023-04-02T09:00:58.839Z,10.39
2023-04-02T09:04:16.395Z,10.57
2023-04-02T09:07:24.860Z,11.00
2023-04-02T09:10:43.512Z,11.01
2023-04-02T09:13:58.001Z,11.05
2023-04-02T09:17:18.771Z,11.25
2023-04-02T09:20:29.430Z,11.20
2023-04-02T09:23:37.986Z,10.84
2023-04-02T09:26:47.986Z,10.00
2023-04-02T09:30:03.852Z,10.63
2023-04-02T09:33:13.713Z,10.89
2023-04-02T09:36:38.438Z,10.74
2023-04-02T09:39:47.193Z,9.93
2023-04-02T09:43:13.228Z,9.57
2023-04-02T09:46:26.565Z,9.74
2023-04-02T09:49:39.912Z,10.10
2023-04-02T09:52:48.149Z,10.72
2023-04-02T09:56:15.331Z,10.61
2023-04-02T09:59:23.606Z,11.47
2023-04-02T10:02:33.683Z,11.46
2023-04-02T10:05:43.967Z,11.35
2023-04-02T10:08:53.000Z,11.34
2023-04-02T10:12:06.503Z,11.10
2023-04-02T10:15:23.381Z,11.43
2023-04-02T10:18:45.303Z,11.60
2023-04-02T10:21:56.527Z,12.04
2023-04-02T10:25:15.800Z,12.34
2023-04-02T10:28:47.373Z,12.61
2023-04-02T10:32:06.635Z,11.74
2023-04-02T10:35:33.733Z,10.81
2023-04-02T10:38:50.693Z,10.57
2023-04-02T10:42:12.589Z,10.73
2023-04-02T10:45:38.983Z,10.93
2023-04-02T10:49:01.571Z,10.76
2023-04-02T10:52:20.254Z,10.95
2023-04-02T10:55:40.935Z,11.01
2023-04-02T10:59:02.919Z,10.72
2023-04-02T11:02:34.789Z,10.99
2023-04-02T11:05:48.921Z,11.15
2023-04-02T11:09:03.417Z,11.62
2023-04-02T11:12:24.535Z,12.28
2023-04-02T11:15:33.798Z,12.08
2023-04-02T11:18:43.184Z,11.65
2023-04-02T11:22:00.068Z,12.51
2023-04-02T11:25:24.667Z,13.32
2023-04-02T11:28:34.967Z,13.26
2023-04-02T11:31:45.434Z,13.16
2023-04-02T11:35:38.103Z,12.15
2023-04-02T11:38:54.905Z,12.42
2023-04-02T11:42:24.912Z,13.33
2023-04-02T11:45:59.409Z,13.35
2023-04-02T11:50:01.663Z,13.02
2023-04-02T11:53:25.539Z,12.29
2023-04-02T11:56:45.661Z,11.60
2023-04-02T12:00:18.360Z,11.59
2023-04-02T12:04:12.052Z,11.14
2023-04-02T12:08:05.240Z,11.08
2023-04-02T12:11:15.847Z,11.03
2023-04-02T12:14:43.322Z,11.15
2023-04-02T12:17:52.270Z,11.06
2023-04-02T12:21:02.384Z,11.04
2023-04-02T12:24:22.406Z,10.82
2023-04-02T12:27:32.570Z,11.03
2023-04-02T12:30:42.540Z,11.45
2023-04-02T12:33:54.380Z,11.96
2023-04-02T12:37:07.043Z,12.28
2023-04-02T12:40:19.738Z,12.35
2023-04-02T12:43:31.436Z,12.53
2023-04-02T12:46:41.652Z,12.67
2023-04-02T12:49:52.243Z,13.02
2023-04-02T12:53:02.135Z,11.77
2023-04-02T12:56:22.448Z,10.90
2023-04-02T12:59:38.493Z,10.62
2023-04-02T13:02:50.375Z,10.38
2023-04-02T13:05:59.041Z,10.79
2023-04-02T13:09:30.149Z,10.95
2023-04-02T13:12:41.784Z,10.89
2023-04-02T13:16:05.044Z,10.65
2023-04-02T13:19:27.265Z,10.54
2023-04-02T13:22:35.748Z,10.59
2023-04-02T13:25:45.736Z,10.63
2023-04-02T13:29:03.566Z,10.48
2023-04-02T13:32:13.856Z,9.68
2023-04-02T13:35:22.486Z,9.10
2023-04-02T13:38:31.169Z,9.10
2023-04-02T13:41:44.614Z,9.30
2023-04-02T13:44:53.034Z,9.46
2023-04-02T13:48:02.022Z,9.14
2023-04-02T13:51:17.150Z,9.08
2023-04-02T13:54:33.805Z,8.89
2023-04-02T13:57:43.400Z,8.82
2023-04-02T14:00:52.230Z,8.96
2023-04-02T14:04:01.640Z,8.71
2023-04-02T14:07:34.993Z,8.52
2023-04-02T14:11:03.157Z,8.66
2023-04-02T14:14:59.470Z,8.83
2023-04-02T14:18:36.639Z,8.58
2023-04-02T14:22:01.234Z,8.73
2023-04-02T14:25:27.396Z,8.99
2023-04-02T14:28:50.673Z,9.54
2023-04-02T14:32:10.763Z,9.26
2023-04-02T14:35:29.879Z,8.81
2023-04-02T14:38:51.820Z,8.69
2023-04-02T14:42:07.910Z,8.64
2023-04-02T14:45:32.504Z,8.72
2023-04-02T14:48:54.377Z,8.95
2023-04-02T14:52:07.260Z,8.83
2023-04-02T14:55:27.610Z,8.61
2023-04-02T14:58:41.707Z,8.22
2023-04-02T15:01:57.791Z,8.30
2023-04-02T15:05:19.439Z,8.46
2023-04-02T15:08:31.949Z,8.73
2023-04-02T15:11:47.212Z,9.05
2023-04-02T15:15:06.526Z,9.35
2023-04-02T15:18:16.837Z,9.49
2023-04-02T15:22:05.903Z,9.64
2023-04-02T15:25:30.574Z,9.66
2023-04-02T15:28:47.873Z,9.55
2023-04-02T15:32:09.620Z,9.48
2023-04-02T15:35:34.732Z,9.53
2023-04-02T15:38:48.702Z,9.26
2023-04-02T15:42:16.097Z,9.35
2023-04-02T15:45:34.748Z,9.36
2023-04-02T15:49:20.329Z,9.45
2023-04-02T15:52:39.427Z,9.32
2023-04-02T15:56:00.796Z,9.09
2023-04-02T15:59:35.987Z,8.98
2023-04-02T16:03:23.066Z,8.85
2023-04-02T16:06:44.587Z,8.76
2023-04-02T16:10:08.559Z,8.66
2023-04-02T16:13:27.086Z,8.54
2023-04-02T16:16:37.126Z,8.52
2023-04-02T16:19:51.144Z,8.60
2023-04-02T16:23:07.569Z,8.62
2023-04-02T16:26:36.094Z,8.47
2023-04-02T16:30:05.513Z,8.07
2023-04-02T16:33:51.993Z,7.91
2023-04-02T16:37:11.662Z,7.90
2023-04-02T16:40:36.668Z,7.73
2023-04-02T16:44:01.021Z,7.67
2023-04-02T16:47:30.752Z,7.42
2023-04-02T16:50:56.227Z,7.38
2023-04-02T16:54:13.128Z,7.26
2023-04-02T16:57:37.011Z,7.21
2023-04-02T17:00:52.593Z,7.08
2023-04-02T17:04:25.668Z,7.07
2023-04-02T17:07:40.675Z,6.90
2023-04-02T17:10:57.417Z,6.83
2023-04-02T17:14:13.568Z,6.74
2023-04-02T17:17:24.346Z,6.69
2023-04-02T17:20:34.495Z,6.51
2023-04-02T17:27:13.363Z,6.44
2023-04-02T17:30:37.236Z,6.39
2023-04-02T17:33:45.777Z,6.34
2023-04-02T17:37:21.363Z,6.27
2023-04-02T17:40:37.772Z,6.13
2023-04-02T17:43:59.354Z,6.08
2023-04-02T17:47:21.283Z,5.95
2023-04-02T17:51:04.086Z,5.98
2023-04-02T17:54:38.326Z,5.90
2023-04-02T17:58:05.212Z,5.62
2023-04-02T18:01:26.300Z,5.54
2023-04-02T18:04:48.146Z,5.55
2023-04-02T18:08:14.513Z,5.57
2023-04-02T18:11:41.327Z,5.65
2023-04-02T18:15:06.893Z,5.52
2023-04-02T18:18:36.199Z,5.42
2023-04-02T18:21:55.499Z,5.33
2023-04-02T18:25:27.691Z,5.29
2023-04-02T18:28:55.180Z,5.31
2023-04-02T18:32:37.170Z,5.36
2023-04-02T18:35:59.691Z,5.28
2023-04-02T18:39:22.764Z,5.19
2023-04-02T18:42:53.253Z,5.11
2023-04-02T18:46:18.783Z,4.93
2023-04-02T18:49:36.878Z,4.82
2023-04-02T18:52:46.375Z,4.68
2023-04-02T18:56:00.307Z,4.63
2023-04-02T18:59:31.430Z,4.69
2023-04-02T19:02:48.420Z,4.72
2023-04-02T19:06:03.014Z,4.52
2023-04-02T19:09:20.697Z,4.49
2023-04-02T19:12:33.771Z,4.46
2023-04-02T19:16:19.469Z,4.19
2023-04-02T19:19:31.810Z,4.15
2023-04-02T19:22:56.081Z,3.97
2023-04-02T19:26:10.593Z,3.62
2023-04-02T19:29:36.033Z,3.54
2023-04-02T19:32:58.394Z,3.50
2023-04-02T19:36:41.553Z,3.50
2023-04-02T19:40:33.001Z,3.41
2023-04-02T19:43:41.627Z,3.44
2023-04-02T19:46:51.763Z,3.36
2023-04-02T19:50:00.311Z,3.23
2023-04-02T19:53:10.105Z,3.10
2023-04-02T19:56:18.650Z,2.98
2023-04-02T19:59:27.056Z,2.95
2023-04-02T20:02:35.670Z,2.76
2023-04-02T20:05:43.795Z,2.68
2023-04-02T20:08:53.771Z,2.54
2023-04-02T20:12:01.933Z,2.42
2023-04-02T20:15:11.728Z,2.38
2023-04-02T20:18:21.117Z,2.36
2023-04-02T20:21:34.635Z,2.42
2023-04-02T20:24:44.210Z,2.39
2023-04-02T20:27:53.470Z,2.41
2023-04-02T20:31:11.193Z,2.30
2023-04-02T20:34:19.967Z,2.26
2023-04-02T20:37:29.454Z,2.26
2023-04-02T20:40:40.876Z,2.30
2023-04-02T20:43:49.888Z,2.28
2023-04-02T20:46:58.730Z,2.25
2023-04-02T20:50:09.011Z,2.28
2023-04-02T20:53:17.551Z,2.10
2023-04-02T20:56:27.846Z,2.19
2023-04-02T20:59:36.339Z,2.20
2023-04-02T21:02:44.940Z,2.14
2023-04-02T21:05:53.090Z,2.17
2023-04-02T21:09:05.798Z,2.20
2023-04-02T21:12:18.117Z,2.28
2023-04-02T21:15:26.404Z,2.35
2023-04-02T21:18:35.109Z,2.29
2023-04-02T21:21:44.437Z,2.25
2023-04-02T21:24:52.699Z,2.18
2023-04-02T21:28:02.289Z,2.22
2023-04-02T21:31:13.477Z,2.30
2023-04-02T21:34:21.710Z,2.25
2023-04-02T21:37:32.778Z,2.17
2023-04-02T21:40:41.365Z,2.13
2023-04-02T21:43:51.619Z,2.21
2023-04-02T21:46:59.818Z,2.28
2023-04-02T21:50:10.891Z,2.24
2023-04-02T21:53:19.003Z,2.26
2023-04-02T21:56:29.942Z,2.33
2023-04-02T21:59:39.712Z,2.34
2023-04-02T22:02:47.957Z,2.32
2023-04-02T22:06:10.655Z,2.11
2023-04-02T22:09:23.346Z,2.15
2023-04-02T22:12:31.749Z,2.18
2023-04-02T22:15:41.547Z,2.22
2023-04-02T22:18:52.083Z,2.20
2023-04-02T22:22:03.217Z,2.26
2023-04-02T22:25:11.756Z,2.17
2023-04-02T22:28:26.340Z,2.18
2023-04-02T22:31:36.821Z,2.19
2023-04-02T22:34:45.848Z,2.22
2023-04-02T22:37:54.843Z,2.09
2023-04-02T22:41:09.408Z,2.08
2023-04-02T22:44:17.843Z,2.13
2023-04-02T22:47:27.576Z,2.07
2023-04-02T22:50:36.199Z,2.00
2023-04-02T22:53:45.553Z,2.01
2023-04-02T22:56:54.019Z,2.06
2023-04-02T23:00:02.194Z,2.03
2023-04-02T23:03:11.706Z,2.08
2023-04-02T23:06:20.356Z,2.14
2023-04-02T23:09:28.727Z,2.15
2023-04-02T23:12:37.052Z,2.12
2023-04-02T23:15:46.052Z,2.12
2023-04-02T23:18:56.661Z,2.17
2023-04-02T23:22:05.245Z,2.18
2023-04-02T23:25:13.622Z,2.15
2023-04-02T23:28:21.701Z,2.12
2023-04-02T23:31:30.212Z,2.14
2023-04-02T23:34:39.881Z,2.13
2023-04-02T23:37:50.615Z,2.08
2023-04-02T23:40:59.008Z,2.11
2023-04-02T23:44:07.771Z,2.18
2023-04-02T23:47:16.291Z,2.24
2023-04-02T23:50:26.317Z,2.20
2023-04-02T23:53:35.581Z,2.09
2023-04-02T23:56:44.145Z,2.08
2023-04-02T23:59:52.367Z,2.09
